createdAt,value
2022-10-06T08:11:15.027Z,11.70
2022-10-06T08:16:24.746Z,11.97
2022-10-06T08:21:34.711Z,12.28
2022-10-06T08:26:44.496Z,12.56
2022-10-06T08:31:51.642Z,12.87
2022-10-06T08:37:19.441Z,13.16
2022-10-06T08:42:35.818Z,13.47
2022-10-06T08:47:56.859Z,13.74
2022-10-06T08:53:15.561Z,14.01
2022-10-06T08:58:36.498Z,14.26
2022-10-06T09:03:48.913Z,14.47
2022-10-06T09:09:00.590Z,14.64
2022-10-06T09:14:16.245Z,14.82
2022-10-06T09:19:32.882Z,15.01
2022-10-06T09:24:47.110Z,15.17
2022-10-06T09:29:55.052Z,15.33
2022-10-06T09:35:05.548Z,15.53
2022-10-06T09:40:36.594Z,15.70
2022-10-06T09:45:43.741Z,15.80
2022-10-06T09:51:11.202Z,15.91
2022-10-06T09:56:20.240Z,16.00
2022-10-06T10:01:31.160Z,16.12
2022-10-06T10:06:38.755Z,16.19
2022-10-06T10:12:05.451Z,16.28
2022-10-06T10:17:19.604Z,16.37
2022-10-06T10:22:32.484Z,16.48
2022-10-06T10:27:51.678Z,16.56
2022-10-06T10:33:06.853Z,16.60
2022-10-06T10:38:21.798Z,16.65
2022-10-06T10:43:34.797Z,16.70
2022-10-06T10:48:46.115Z,16.79
2022-10-06T10:53:57.292Z,16.85
2022-10-06T10:59:17.109Z,16.86
2022-10-06T11:04:24.128Z,16.91
2022-10-06T11:09:40.278Z,16.96
2022-10-06T11:14:57.696Z,17.01
2022-10-06T11:20:13.309Z,17.03
2022-10-06T11:25:31.374Z,17.10
2022-10-06T11:30:56.633Z,17.14
2022-10-06T11:36:05.358Z,17.15
2022-10-06T11:41:21.747Z,17.15
2022-10-06T11:46:44.082Z,17.15
2022-10-06T11:51:56.954Z,17.16
2022-10-06T11:57:31.157Z,17.21
2022-10-06T12:02:42.845Z,17.27
2022-10-06T12:08:17.070Z,17.30
2022-10-06T12:19:17.192Z,17.29
2022-10-06T12:24:42.168Z,17.27
2022-10-06T12:29:54.090Z,17.28
2022-10-06T12:35:14.517Z,17.23
2022-10-06T12:40:49.830Z,17.21
2022-10-06T12:46:01.627Z,17.20
2022-10-06T12:51:09.602Z,17.19
2022-10-06T12:56:29.218Z,17.15
2022-10-06T13:01:36.543Z,17.11
2022-10-06T13:06:52.178Z,17.05
2022-10-06T13:11:59.785Z,17.04
2022-10-06T13:17:07.046Z,17.04
2022-10-06T13:22:16.941Z,17.12
2022-10-06T13:27:24.438Z,17.21
2022-10-06T13:32:31.847Z,17.34
2022-10-06T13:37:39.434Z,17.43
2022-10-06T13:42:49.670Z,17.49
2022-10-06T13:48:09.330Z,17.54
2022-10-06T13:53:28.538Z,17.58
2022-10-06T13:58:36.464Z,17.58
2022-10-06T14:03:43.702Z,17.64
2022-10-06T14:08:55.797Z,17.69
2022-10-06T14:14:05.976Z,17.74
2022-10-06T14:19:42.089Z,17.74
2022-10-06T14:24:55.406Z,17.69
2022-10-06T14:30:03.224Z,17.68
2022-10-06T14:35:13.756Z,17.65
2022-10-06T14:40:21.539Z,17.61
2022-10-06T14:45:28.699Z,17.56
2022-10-06T14:50:37.458Z,17.52
2022-10-06T14:55:45.694Z,17.47
2022-10-06T15:00:53.058Z,17.33
2022-10-06T15:06:23.252Z,17.36
2022-10-06T15:11:32.244Z,17.30
2022-10-06T15:16:45.173Z,17.25
2022-10-06T15:21:52.132Z,17.23
2022-10-06T15:27:17.651Z,17.31
2022-10-06T15:32:26.516Z,17.26
2022-10-06T15:37:33.787Z,17.18
2022-10-06T15:42:40.944Z,17.09
2022-10-06T15:47:52.722Z,16.99
2022-10-06T15:53:00.265Z,16.86
2022-10-06T15:58:07.272Z,16.73
2022-10-06T16:03:28.045Z,16.57
2022-10-06T16:08:36.630Z,16.39
2022-10-06T16:13:43.876Z,16.25
2022-10-06T16:18:50.878Z,16.08
2022-10-06T16:23:58.274Z,15.91
2022-10-06T16:29:06.117Z,15.76
2022-10-06T16:34:13.844Z,15.60
2022-10-06T16:39:23.183Z,15.44
2022-10-06T16:44:30.149Z,15.31
2022-10-06T16:49:37.131Z,15.18
2022-10-06T16:54:44.447Z,15.05
2022-10-06T16:59:51.414Z,14.94
2022-10-06T17:04:58.460Z,14.81
2022-10-06T17:10:20.284Z,14.70
2022-10-06T17:15:32.759Z,14.59
2022-10-06T17:20:40.650Z,14.49
2022-10-06T17:25:47.963Z,14.40
2022-10-06T17:30:59.780Z,14.29
2022-10-06T17:36:10.927Z,14.18
2022-10-06T17:41:20.253Z,14.05
2022-10-06T17:46:28.669Z,14.02
2022-10-06T17:51:36.512Z,13.89
2022-10-06T17:56:44.529Z,13.72
2022-10-06T18:01:52.443Z,13.52
2022-10-06T18:07:00.474Z,13.32
2022-10-06T18:12:10.818Z,13.12
2022-10-06T18:17:18.629Z,12.91
2022-10-06T18:22:26.102Z,12.71
2022-10-06T18:27:33.773Z,12.52
2022-10-06T18:34:36.673Z,12.33
2022-10-06T18:38:08.199Z,12.15
2022-10-06T18:43:15.448Z,11.96
2022-10-06T18:48:40.167Z,11.78
2022-10-06T18:53:47.435Z,11.61
2022-10-06T18:58:54.786Z,11.44
2022-10-06T19:04:04.227Z,11.27
2022-10-06T19:09:12.176Z,11.11
2022-10-06T19:14:20.702Z,10.97
2022-10-06T19:19:29.528Z,10.83
2022-10-06T19:24:38.165Z,10.71
2022-10-06T19:29:47.346Z,10.59
2022-10-06T19:34:55.226Z,10.48
2022-10-06T19:40:02.625Z,10.37
2022-10-06T19:45:12.301Z,10.26
2022-10-06T19:50:20.065Z,10.15
2022-10-06T19:55:28.995Z,10.05
2022-10-06T20:00:37.030Z,9.93
2022-10-06T20:05:44.328Z,9.82
2022-10-06T20:10:51.486Z,9.72
2022-10-06T20:16:01.981Z,9.62
2022-10-06T20:21:15.277Z,9.51
2022-10-06T20:26:23.873Z,9.42
2022-10-06T20:31:33.393Z,9.34
2022-10-06T20:36:41.834Z,9.32
2022-10-06T20:41:49.327Z,9.31
2022-10-06T20:46:56.661Z,9.31
2022-10-06T20:52:05.034Z,9.32
2022-10-06T20:57:12.148Z,9.35
2022-10-06T21:02:19.444Z,9.36
2022-10-06T21:07:26.874Z,9.39
2022-10-06T21:12:33.913Z,9.40
2022-10-06T21:17:41.814Z,9.39
2022-10-06T21:22:50.139Z,9.37
2022-10-06T21:27:57.337Z,9.34
2022-10-06T21:33:04.283Z,9.30
2022-10-06T21:38:14.192Z,9.28
2022-10-06T21:43:21.597Z,9.26
2022-10-06T21:48:28.769Z,9.25
2022-10-06T21:53:37.000Z,9.24
2022-10-06T21:58:44.209Z,9.24
2022-10-06T22:03:51.870Z,9.24
2022-10-06T22:09:00.151Z,9.23
2022-10-06T22:14:09.072Z,9.22
2022-10-06T22:19:18.304Z,9.22
2022-10-06T22:24:26.373Z,9.23
2022-10-06T22:29:33.790Z,9.21
2022-10-06T22:34:41.119Z,9.21
2022-10-06T22:39:48.104Z,9.22
2022-10-06T22:44:55.695Z,9.21
2022-10-06T22:50:02.825Z,9.19
2022-10-06T22:55:11.348Z,9.18
2022-10-06T23:00:19.510Z,9.17
2022-10-06T23:05:26.650Z,9.15
2022-10-06T23:10:34.062Z,9.13
2022-10-06T23:15:41.114Z,9.13
2022-10-06T23:20:48.037Z,9.10
2022-10-06T23:25:55.305Z,9.09
2022-10-06T23:31:02.495Z,9.05
2022-10-06T23:36:12.375Z,9.01
2022-10-06T23:41:19.774Z,8.97
2022-10-06T23:46:27.328Z,8.92
2022-10-06T23:51:34.389Z,8.91
2022-10-06T23:56:41.325Z,8.88
